createdAt,value
2018-10-03T00:01:09.212Z,8.60
2018-10-03T00:03:37.606Z,8.60
2018-10-03T00:06:05.988Z,8.60
2018-10-03T00:08:34.275Z,8.50
2018-10-03T00:11:02.589Z,8.50
2018-10-03T00:13:30.974Z,8.50
2018-10-03T00:15:59.403Z,8.50
2018-10-03T00:18:27.752Z,8.50
2018-10-03T00:20:56.064Z,8.50
2018-10-03T00:23:24.492Z,8.50
2018-10-03T00:25:53.587Z,8.50
2018-10-03T00:28:21.900Z,8.50
2018-10-03T00:30:50.273Z,8.50
2018-10-03T00:33:18.608Z,8.50
2018-10-03T00:35:47.018Z,8.50
2018-10-03T00:38:15.704Z,8.50
2018-10-03T00:40:44.159Z,8.50
2018-10-03T00:43:12.493Z,8.50
2018-10-03T00:45:40.847Z,8.50
2018-10-03T00:48:09.611Z,8.50
2018-10-03T00:50:38.171Z,8.50
2018-10-03T00:53:06.884Z,8.40
2018-10-03T00:55:35.196Z,8.40
2018-10-03T00:58:03.576Z,8.40
2018-10-03T01:00:31.978Z,8.40
2018-10-03T01:03:00.312Z,8.40
2018-10-03T01:05:28.608Z,8.40
2018-10-03T01:07:56.924Z,8.40
2018-10-03T01:10:25.208Z,8.40
2018-10-03T01:12:53.508Z,8.50
2018-10-03T01:15:21.888Z,8.50
2018-10-03T01:17:50.194Z,8.50
2018-10-03T01:20:18.656Z,8.50
2018-10-03T01:22:46.932Z,8.50
2018-10-03T01:25:15.208Z,8.50
2018-10-03T01:27:43.495Z,8.50
2018-10-03T01:30:11.818Z,8.50
2018-10-03T01:32:40.141Z,8.50
2018-10-03T01:35:08.724Z,8.50
2018-10-03T01:37:37.072Z,8.50
2018-10-03T01:40:05.483Z,8.50
2018-10-03T01:42:33.787Z,8.50
2018-10-03T01:45:02.108Z,8.60
2018-10-03T01:47:30.516Z,8.50
2018-10-03T01:49:58.816Z,8.50
2018-10-03T01:52:27.092Z,8.50
2018-10-03T01:54:55.461Z,8.50
2018-10-03T01:57:23.755Z,8.50
2018-10-03T01:59:52.064Z,8.50
2018-10-03T02:02:20.403Z,8.60
2018-10-03T02:04:48.740Z,8.50
2018-10-03T02:07:17.064Z,8.60
2018-10-03T02:09:45.429Z,8.60
2018-10-03T02:12:13.762Z,8.70
2018-10-03T02:14:42.102Z,8.70
2018-10-03T02:17:10.413Z,8.80
2018-10-03T02:19:38.755Z,8.80
2018-10-03T02:22:07.049Z,8.80
2018-10-03T02:24:35.407Z,8.90
2018-10-03T02:27:03.753Z,8.90
2018-10-03T02:29:32.152Z,8.90
2018-10-03T02:32:00.449Z,9.00
2018-10-03T02:34:28.768Z,8.90
2018-10-03T02:36:57.079Z,8.90
2018-10-03T02:39:25.348Z,8.90
2018-10-03T02:41:53.688Z,8.90
2018-10-03T02:44:21.972Z,8.90
2018-10-03T02:46:50.254Z,8.90
2018-10-03T02:49:18.599Z,8.90
2018-10-03T02:51:46.901Z,8.80
2018-10-03T02:54:15.193Z,8.80
2018-10-03T02:56:43.455Z,8.80
2018-10-03T02:59:11.725Z,8.80
2018-10-03T03:01:40.278Z,8.80
2018-10-03T03:04:08.442Z,8.80
2018-10-03T03:06:36.741Z,8.80
2018-10-03T03:09:08.709Z,8.80
2018-10-03T03:11:36.960Z,8.80
2018-10-03T03:14:05.237Z,8.80
2018-10-03T03:16:33.515Z,8.80
2018-10-03T03:19:01.789Z,8.80
2018-10-03T03:21:30.119Z,8.80
2018-10-03T03:23:58.389Z,8.90
2018-10-03T03:26:26.647Z,8.80
2018-10-03T03:28:54.936Z,8.90
2018-10-03T03:31:23.253Z,8.90
2018-10-03T03:33:51.514Z,8.90
2018-10-03T03:36:19.798Z,8.90
2018-10-03T03:38:48.073Z,8.90
2018-10-03T03:41:16.452Z,8.90
2018-10-03T03:43:44.705Z,8.80
2018-10-03T03:46:12.978Z,8.80
2018-10-03T03:48:41.283Z,8.80
2018-10-03T03:51:09.537Z,8.80
2018-10-03T03:53:37.777Z,8.80
2018-10-03T03:56:06.081Z,8.80
2018-10-03T03:58:34.344Z,8.80
2018-10-03T04:01:02.636Z,8.80
2018-10-03T04:03:30.881Z,8.80
2018-10-03T04:05:59.197Z,8.80
2018-10-03T04:08:27.497Z,8.80
2018-10-03T04:10:55.866Z,8.80
2018-10-03T04:13:24.144Z,8.80
2018-10-03T04:15:52.437Z,8.80
2018-10-03T04:18:20.707Z,8.80
2018-10-03T04:20:48.961Z,8.80
2018-10-03T04:23:17.272Z,8.80
2018-10-03T04:25:45.569Z,8.80
2018-10-03T04:28:13.883Z,8.80
2018-10-03T04:30:42.158Z,8.80
2018-10-03T04:33:10.435Z,8.80
2018-10-03T04:35:38.759Z,8.90
2018-10-03T04:38:07.009Z,8.90
2018-10-03T04:40:35.273Z,8.90
2018-10-03T04:43:03.553Z,8.90
2018-10-03T04:45:31.821Z,8.90
2018-10-03T04:48:00.063Z,8.90
2018-10-03T04:50:28.347Z,8.90
2018-10-03T04:52:56.566Z,8.90
2018-10-03T04:55:24.860Z,9.00
2018-10-03T04:57:53.176Z,9.00
2018-10-03T05:00:21.394Z,9.00
2018-10-03T05:02:49.693Z,9.00
2018-10-03T05:05:18.988Z,9.00
2018-10-03T05:07:47.458Z,9.00
2018-10-03T05:10:15.750Z,9.00
2018-10-03T05:12:44.031Z,9.00
2018-10-03T05:15:12.345Z,9.00
2018-10-03T05:17:40.609Z,9.10
2018-10-03T05:20:08.857Z,9.00
2018-10-03T05:22:37.125Z,9.00
2018-10-03T05:25:05.558Z,9.00
2018-10-03T05:27:34.056Z,9.00
2018-10-03T05:30:02.345Z,8.90
2018-10-03T05:32:30.647Z,8.90
2018-10-03T05:34:58.921Z,8.90
2018-10-03T05:37:27.217Z,8.80
2018-10-03T05:39:55.520Z,8.80
2018-10-03T05:42:23.772Z,8.80
2018-10-03T05:44:52.121Z,8.80
2018-10-03T05:47:20.399Z,8.80
2018-10-03T05:49:48.613Z,8.80
2018-10-03T05:52:16.920Z,8.90
2018-10-03T05:54:45.184Z,8.80
2018-10-03T05:57:13.513Z,8.90
2018-10-03T05:59:41.771Z,8.90
2018-10-03T06:02:10.098Z,8.90
2018-10-03T06:04:38.351Z,8.90
2018-10-03T06:07:06.638Z,8.90
2018-10-03T06:09:34.905Z,8.90
2018-10-03T06:12:03.197Z,8.90
2018-10-03T06:14:31.416Z,8.90
2018-10-03T06:16:59.729Z,8.90
2018-10-03T06:19:27.989Z,8.80
2018-10-03T06:21:56.268Z,8.90
2018-10-03T06:24:24.541Z,8.90
2018-10-03T06:26:52.838Z,8.90
2018-10-03T06:29:21.189Z,8.90
2018-10-03T06:31:49.481Z,9.00
2018-10-03T06:34:17.743Z,9.00
2018-10-03T06:36:46.020Z,9.00
2018-10-03T06:39:14.313Z,9.00
2018-10-03T06:41:42.563Z,9.00
2018-10-03T06:44:11.484Z,9.00
2018-10-03T06:46:39.794Z,9.00
2018-10-03T06:49:08.090Z,9.00
2018-10-03T06:51:36.365Z,9.10
2018-10-03T06:54:04.674Z,9.10
2018-10-03T06:56:32.941Z,9.10
2018-10-03T06:59:01.667Z,9.20
2018-10-03T07:01:29.924Z,9.20
2018-10-03T07:03:58.177Z,9.30
2018-10-03T07:06:26.506Z,9.30
2018-10-03T07:08:54.952Z,9.30
2018-10-03T07:11:23.433Z,9.30
2018-10-03T07:13:51.853Z,9.30
2018-10-03T07:16:20.378Z,9.40
2018-10-03T07:18:48.621Z,9.40
2018-10-03T07:21:16.868Z,9.40
2018-10-03T07:23:45.335Z,9.40
2018-10-03T07:26:13.797Z,9.60
2018-10-03T07:28:42.030Z,9.70
2018-10-03T07:31:10.396Z,9.70
2018-10-03T07:33:38.912Z,9.80
2018-10-03T07:36:07.934Z,9.90
2018-10-03T07:38:36.419Z,9.90
2018-10-03T07:41:04.849Z,10.00
2018-10-03T07:43:33.215Z,10.00
2018-10-03T07:46:01.626Z,10.00
2018-10-03T07:48:30.105Z,10.10
2018-10-03T07:50:58.450Z,10.10
2018-10-03T07:53:27.066Z,10.20
2018-10-03T07:55:55.542Z,10.30
2018-10-03T07:58:23.978Z,10.40
2018-10-03T08:00:52.438Z,10.50
2018-10-03T08:03:20.775Z,10.60
2018-10-03T08:05:49.110Z,10.80
2018-10-03T08:08:17.438Z,11.00
2018-10-03T08:10:45.829Z,11.30
2018-10-03T08:13:14.179Z,11.50
2018-10-03T08:15:42.535Z,11.80
2018-10-03T08:18:10.886Z,12.10
2018-10-03T08:20:39.235Z,12.40
2018-10-03T08:23:07.640Z,12.60
2018-10-03T08:25:36.001Z,12.80
2018-10-03T08:28:04.600Z,12.80
2018-10-03T08:30:33.381Z,12.70
2018-10-03T08:33:01.997Z,12.60
2018-10-03T08:35:30.318Z,12.60
2018-10-03T08:37:58.639Z,12.50
2018-10-03T08:40:27.042Z,12.50
2018-10-03T08:42:55.389Z,12.40
2018-10-03T08:45:23.819Z,12.30
2018-10-03T08:47:52.090Z,12.20
2018-10-03T08:50:20.372Z,12.20
2018-10-03T08:52:48.697Z,12.20
2018-10-03T08:55:17.024Z,12.10
2018-10-03T08:57:45.565Z,12.10
2018-10-03T09:00:13.834Z,12.20
2018-10-03T09:02:42.160Z,12.10
2018-10-03T09:05:10.585Z,12.10
2018-10-03T09:07:39.037Z,12.20
2018-10-03T09:10:07.297Z,12.20
2018-10-03T09:12:35.605Z,12.20
2018-10-03T09:15:03.921Z,12.10
2018-10-03T09:17:32.228Z,12.10
2018-10-03T09:20:00.523Z,12.10
2018-10-03T09:22:29.192Z,12.10
2018-10-03T09:25:01.798Z,12.20
2018-10-03T09:27:31.897Z,12.30
2018-10-03T09:30:16.861Z,12.40
2018-10-03T09:32:47.384Z,12.50
2018-10-03T09:35:17.363Z,12.50
2018-10-03T09:37:46.195Z,12.50
2018-10-03T09:40:15.866Z,12.40
2018-10-03T09:42:45.818Z,12.40
2018-10-03T09:45:17.817Z,12.30
2018-10-03T09:47:48.724Z,12.20
2018-10-03T09:50:27.384Z,12.10
2018-10-03T09:52:56.691Z,12.00
2018-10-03T09:55:25.816Z,12.10
2018-10-03T09:57:54.781Z,12.10
2018-10-03T10:00:29.219Z,12.20
2018-10-03T10:02:58.315Z,12.20
2018-10-03T10:05:27.479Z,12.20
2018-10-03T10:07:56.698Z,12.30
2018-10-03T10:10:26.199Z,12.40
2018-10-03T10:12:55.587Z,12.50
2018-10-03T10:15:24.960Z,12.60
2018-10-03T10:17:55.996Z,12.70
2018-10-03T10:20:25.301Z,12.80
2018-10-03T10:22:54.748Z,12.90
2018-10-03T10:25:23.876Z,13.20
2018-10-03T10:27:52.999Z,13.70
2018-10-03T10:30:22.181Z,14.40
2018-10-03T10:32:51.906Z,15.10
2018-10-03T10:36:46.595Z,15.80
2018-10-03T10:39:16.249Z,16.50
2018-10-03T10:41:45.946Z,17.30
2018-10-03T10:44:17.135Z,17.90
2018-10-03T10:46:47.091Z,18.50
2018-10-03T10:49:19.852Z,19.10
2018-10-03T10:51:51.025Z,19.60
2018-10-03T10:54:19.247Z,19.90
2018-10-03T10:56:47.464Z,19.80
2018-10-03T10:59:15.966Z,19.40
2018-10-03T11:01:44.284Z,18.80
2018-10-03T11:04:12.606Z,18.00
2018-10-03T11:06:40.922Z,17.50
2018-10-03T11:09:09.180Z,17.30
2018-10-03T11:11:37.535Z,17.50
2018-10-03T11:14:05.813Z,17.80
2018-10-03T11:16:34.182Z,18.40
2018-10-03T11:19:02.666Z,18.90
2018-10-03T11:21:30.940Z,19.40
2018-10-03T11:23:59.404Z,19.90
2018-10-03T11:26:27.506Z,20.40
2018-10-03T11:28:55.758Z,20.90
2018-10-03T11:31:24.053Z,21.10
2018-10-03T11:33:52.394Z,20.80
2018-10-03T11:36:20.626Z,20.30
2018-10-03T11:38:48.877Z,19.60
2018-10-03T11:41:17.154Z,18.90
2018-10-03T11:43:45.460Z,18.30
2018-10-03T11:46:13.694Z,17.70
2018-10-03T11:48:41.958Z,17.20
2018-10-03T11:51:10.225Z,16.90
2018-10-03T11:53:38.498Z,17.10
2018-10-03T11:56:06.785Z,17.60
2018-10-03T11:58:35.062Z,18.30
2018-10-03T12:01:03.337Z,18.90
2018-10-03T12:03:31.726Z,19.40
2018-10-03T12:05:59.939Z,19.90
2018-10-03T12:08:28.281Z,20.30
2018-10-03T12:10:56.572Z,20.70
2018-10-03T12:13:24.865Z,20.80
2018-10-03T12:15:53.149Z,20.50
2018-10-03T12:18:21.461Z,20.00
2018-10-03T12:20:49.797Z,19.50
2018-10-03T12:23:18.054Z,18.90
2018-10-03T12:25:46.317Z,18.30
2018-10-03T12:28:14.603Z,17.80
2018-10-03T12:30:42.900Z,17.20
2018-10-03T12:33:11.206Z,16.80
2018-10-03T12:35:39.501Z,16.50
2018-10-03T12:38:07.774Z,16.20
2018-10-03T12:40:36.068Z,16.00
2018-10-03T12:43:04.338Z,16.30
2018-10-03T12:45:32.672Z,16.90
2018-10-03T12:48:00.918Z,17.20
2018-10-03T12:50:29.205Z,17.40
2018-10-03T12:52:57.494Z,17.80
2018-10-03T12:55:25.761Z,18.50
2018-10-03T12:57:54.088Z,19.20
2018-10-03T13:00:25.257Z,19.90
2018-10-03T13:02:53.613Z,20.30
2018-10-03T13:05:21.899Z,20.70
2018-10-03T13:07:50.187Z,21.10
2018-10-03T13:10:18.482Z,21.60
2018-10-03T13:12:46.750Z,22.10
2018-10-03T13:15:15.005Z,22.40
2018-10-03T13:17:43.320Z,22.50
2018-10-03T13:20:11.614Z,22.10
2018-10-03T13:22:39.856Z,21.50
2018-10-03T13:25:08.152Z,20.70
2018-10-03T13:27:36.428Z,19.90
2018-10-03T13:30:04.786Z,19.30
2018-10-03T13:32:33.168Z,19.10
2018-10-03T13:35:01.460Z,19.10
2018-10-03T13:37:29.791Z,19.50
2018-10-03T13:39:58.061Z,20.00
2018-10-03T13:42:26.343Z,20.30
2018-10-03T13:44:54.634Z,20.70
2018-10-03T13:47:22.917Z,20.90
2018-10-03T13:49:51.205Z,20.80
2018-10-03T13:52:19.677Z,20.40
2018-10-03T13:54:48.002Z,20.10
2018-10-03T13:57:16.325Z,19.90
2018-10-03T13:59:44.688Z,19.70
2018-10-03T14:02:12.925Z,19.50
2018-10-03T14:04:41.205Z,19.10
2018-10-03T14:07:09.448Z,18.60
2018-10-03T14:09:37.757Z,18.10
2018-10-03T14:12:06.042Z,17.70
2018-10-03T14:14:34.331Z,17.30
2018-10-03T14:17:02.636Z,17.00
2018-10-03T14:19:30.909Z,16.70
2018-10-03T14:21:59.185Z,16.40
2018-10-03T14:24:27.572Z,16.10
2018-10-03T14:26:55.857Z,15.80
2018-10-03T14:29:24.145Z,15.60
2018-10-03T14:31:52.493Z,15.40
2018-10-03T14:34:21.021Z,15.20
2018-10-03T14:36:49.353Z,15.00
2018-10-03T14:39:17.798Z,14.90
2018-10-03T14:41:46.067Z,14.70
2018-10-03T14:44:14.359Z,14.60
2018-10-03T14:46:42.685Z,14.40
2018-10-03T14:49:11.117Z,14.30
2018-10-03T14:51:39.345Z,14.20
2018-10-03T14:54:07.735Z,14.10
2018-10-03T14:56:36.030Z,13.90
2018-10-03T14:59:04.309Z,13.90
2018-10-03T15:01:32.678Z,13.80
2018-10-03T15:04:00.951Z,13.80
2018-10-03T15:06:29.235Z,13.70
2018-10-03T15:08:59.051Z,13.70
2018-10-03T15:11:27.467Z,13.70
2018-10-03T15:13:55.709Z,13.60
2018-10-03T15:16:24.001Z,13.60
2018-10-03T15:18:52.326Z,13.50
2018-10-03T15:21:20.618Z,13.40
2018-10-03T15:23:48.909Z,13.30
2018-10-03T15:26:17.221Z,13.20
2018-10-03T15:28:45.514Z,13.10
2018-10-03T15:31:13.793Z,13.10
2018-10-03T15:33:42.185Z,13.00
2018-10-03T15:36:10.484Z,12.90
2018-10-03T15:38:39.032Z,12.90
2018-10-03T15:41:07.321Z,12.80
2018-10-03T15:43:35.913Z,12.80
2018-10-03T15:46:04.345Z,12.80
2018-10-03T15:48:32.698Z,12.80
2018-10-03T15:51:01.005Z,12.70
2018-10-03T15:53:29.261Z,12.60
2018-10-03T15:55:57.561Z,12.60
2018-10-03T15:58:25.916Z,12.60
2018-10-03T16:00:54.201Z,12.60
2018-10-03T16:03:22.533Z,12.60
2018-10-03T16:05:50.868Z,12.60
2018-10-03T16:08:19.269Z,12.60
2018-10-03T16:10:47.579Z,12.50
2018-10-03T16:13:15.881Z,12.40
2018-10-03T16:15:44.176Z,12.30
2018-10-03T16:18:12.428Z,12.20
2018-10-03T16:20:40.754Z,12.10
2018-10-03T16:23:08.997Z,12.00
2018-10-03T16:25:37.252Z,11.90
2018-10-03T16:28:05.690Z,11.90
2018-10-03T16:30:33.927Z,11.80
2018-10-03T16:33:02.172Z,11.70
2018-10-03T16:35:30.490Z,11.70
2018-10-03T16:37:58.760Z,11.60
2018-10-03T16:40:27.160Z,11.60
2018-10-03T16:42:55.457Z,11.60
2018-10-03T16:45:23.771Z,11.50
2018-10-03T16:47:52.514Z,11.50
2018-10-03T16:50:20.833Z,11.50
2018-10-03T16:52:49.348Z,11.50
2018-10-03T16:55:17.870Z,11.50
2018-10-03T16:57:46.182Z,11.40
2018-10-03T17:00:14.493Z,11.40
2018-10-03T17:02:43.386Z,11.40
2018-10-03T17:05:11.884Z,11.40
2018-10-03T17:07:40.518Z,11.30
2018-10-03T17:10:08.896Z,11.30
2018-10-03T17:12:37.192Z,11.30
2018-10-03T17:15:05.588Z,11.20
2018-10-03T17:17:33.859Z,11.20
2018-10-03T17:20:02.297Z,11.20
2018-10-03T17:22:30.574Z,11.20
2018-10-03T17:24:59.033Z,11.20
2018-10-03T17:27:27.334Z,11.10
2018-10-03T17:29:55.661Z,11.10
2018-10-03T17:32:23.949Z,11.10
2018-10-03T17:34:52.311Z,11.10
2018-10-03T17:37:20.684Z,11.00
2018-10-03T17:39:48.964Z,11.00
2018-10-03T17:42:17.297Z,10.90
2018-10-03T17:44:45.626Z,10.90
2018-10-03T17:47:13.902Z,10.80
2018-10-03T17:49:42.240Z,10.80
2018-10-03T17:52:10.546Z,10.80
2018-10-03T17:54:38.993Z,10.80
2018-10-03T17:57:07.575Z,10.80
2018-10-03T17:59:35.885Z,10.80
2018-10-03T18:02:07.885Z,10.80
2018-10-03T18:04:36.209Z,10.70
2018-10-03T18:07:04.510Z,10.70
2018-10-03T18:09:32.998Z,10.70
2018-10-03T18:12:01.278Z,10.70
2018-10-03T18:14:29.603Z,10.70
2018-10-03T18:16:57.910Z,10.70
2018-10-03T18:19:26.240Z,10.60
2018-10-03T18:21:54.751Z,10.60
2018-10-03T18:24:23.064Z,10.60
2018-10-03T18:26:51.329Z,10.50
2018-10-03T18:29:19.863Z,10.50
2018-10-03T18:31:48.137Z,10.50
2018-10-03T18:34:16.476Z,10.50
2018-10-03T18:36:44.782Z,10.40
2018-10-03T18:39:13.183Z,10.30
2018-10-03T18:41:41.443Z,10.30
2018-10-03T18:44:09.836Z,10.20
2018-10-03T18:46:38.128Z,10.20
2018-10-03T18:49:06.566Z,10.10
2018-10-03T18:51:34.958Z,10.10
2018-10-03T18:54:03.397Z,10.10
2018-10-03T18:56:31.661Z,10.10
2018-10-03T18:58:59.946Z,10.10
2018-10-03T19:01:28.473Z,10.10
2018-10-03T19:03:56.789Z,10.10
2018-10-03T19:06:25.100Z,10.20
2018-10-03T19:08:53.550Z,10.20
2018-10-03T19:11:21.889Z,10.20
2018-10-03T19:13:50.152Z,10.30
2018-10-03T19:16:18.484Z,10.30
2018-10-03T19:18:46.779Z,10.40
2018-10-03T19:21:15.194Z,10.40
2018-10-03T19:23:43.515Z,10.40
2018-10-03T19:26:11.855Z,10.30
2018-10-03T19:28:40.190Z,10.40
2018-10-03T19:31:08.624Z,10.40
2018-10-03T19:33:36.946Z,10.40
2018-10-03T19:36:05.236Z,10.40
2018-10-03T19:38:34.326Z,10.40
2018-10-03T19:41:02.611Z,10.40
2018-10-03T19:43:30.962Z,10.40
2018-10-03T19:45:59.301Z,10.50
2018-10-03T19:48:27.719Z,10.50
2018-10-03T19:50:55.953Z,10.50
2018-10-03T19:53:29.678Z,10.50
2018-10-03T19:55:57.928Z,10.50
2018-10-03T19:58:26.233Z,10.50
2018-10-03T20:00:54.599Z,10.50
2018-10-03T20:03:22.922Z,10.50
2018-10-03T20:05:51.267Z,10.60
2018-10-03T20:08:20.048Z,10.60
2018-10-03T20:10:48.473Z,10.50
2018-10-03T20:13:16.797Z,10.50
2018-10-03T20:15:45.148Z,10.50
2018-10-03T20:18:13.613Z,10.50
2018-10-03T20:20:41.868Z,10.40
2018-10-03T20:23:10.117Z,10.40
2018-10-03T20:25:38.566Z,10.40
2018-10-03T20:28:06.962Z,10.40
2018-10-03T20:30:35.331Z,10.40
2018-10-03T20:33:03.566Z,10.40
2018-10-03T20:35:32.026Z,10.40
2018-10-03T20:38:00.635Z,10.50
2018-10-03T20:40:28.985Z,10.50
2018-10-03T20:42:57.272Z,10.50
2018-10-03T20:45:25.533Z,10.50
2018-10-03T20:47:53.825Z,10.60
2018-10-03T20:50:22.121Z,10.60
2018-10-03T20:52:50.445Z,10.60
2018-10-03T20:55:18.741Z,10.60
2018-10-03T20:57:47.004Z,10.60
2018-10-03T21:00:15.331Z,10.60
2018-10-03T21:02:43.581Z,10.70
2018-10-03T21:05:14.313Z,10.60
2018-10-03T21:07:42.617Z,10.70
2018-10-03T21:10:10.897Z,10.60
2018-10-03T21:12:39.179Z,10.60
2018-10-03T21:15:07.452Z,10.60
2018-10-03T21:17:35.783Z,10.60
2018-10-03T21:20:04.381Z,10.70
2018-10-03T21:22:32.705Z,10.70
2018-10-03T21:25:01.178Z,10.70
2018-10-03T21:27:29.381Z,10.70
2018-10-03T21:29:57.704Z,10.70
2018-10-03T21:32:26.033Z,10.70
2018-10-03T21:34:54.259Z,10.70
2018-10-03T21:37:22.525Z,10.70
2018-10-03T21:39:50.795Z,10.70
2018-10-03T21:42:19.122Z,10.70
2018-10-03T21:44:47.802Z,10.80
2018-10-03T21:47:16.049Z,10.70
2018-10-03T21:49:44.396Z,10.80
2018-10-03T21:52:12.654Z,10.80
2018-10-03T21:54:41.046Z,10.80
2018-10-03T21:57:09.340Z,10.70
2018-10-03T21:59:37.625Z,10.70
2018-10-03T22:02:05.932Z,10.70
2018-10-03T22:04:34.242Z,10.70
2018-10-03T22:07:02.477Z,10.70
2018-10-03T22:09:30.796Z,10.70
2018-10-03T22:11:59.021Z,10.70
2018-10-03T22:14:27.284Z,10.60
2018-10-03T22:16:55.557Z,10.70
2018-10-03T22:19:23.841Z,10.70
2018-10-03T22:21:52.110Z,10.70
2018-10-03T22:24:20.392Z,10.70
2018-10-03T22:26:48.727Z,10.70
2018-10-03T22:29:17.016Z,10.60
2018-10-03T22:31:45.269Z,10.70
2018-10-03T22:34:13.545Z,10.70
2018-10-03T22:36:41.821Z,10.70
2018-10-03T22:39:10.608Z,10.70
2018-10-03T22:41:38.948Z,10.70
2018-10-03T22:44:07.214Z,10.60
2018-10-03T22:46:35.488Z,10.60
2018-10-03T22:49:06.810Z,10.60
2018-10-03T22:51:35.081Z,10.60
2018-10-03T22:54:03.359Z,10.50
2018-10-03T22:56:31.635Z,10.50
2018-10-03T22:58:59.877Z,10.40
2018-10-03T23:01:28.153Z,10.40
2018-10-03T23:03:56.405Z,10.30
2018-10-03T23:06:24.676Z,10.30
2018-10-03T23:08:52.985Z,10.30
2018-10-03T23:11:21.246Z,10.20
2018-10-03T23:13:49.573Z,10.20
2018-10-03T23:16:17.877Z,10.10
2018-10-03T23:18:46.204Z,10.10
2018-10-03T23:21:14.548Z,10.00
2018-10-03T23:23:42.842Z,10.00
2018-10-03T23:26:11.109Z,9.90
2018-10-03T23:28:39.393Z,9.90
2018-10-03T23:31:07.642Z,9.80
2018-10-03T23:33:35.927Z,9.80
2018-10-03T23:36:04.221Z,9.70
2018-10-03T23:38:32.709Z,9.70
2018-10-03T23:41:00.978Z,9.70
2018-10-03T23:43:29.257Z,9.60
2018-10-03T23:45:57.525Z,9.70
2018-10-03T23:48:25.813Z,9.70
2018-10-03T23:50:54.085Z,9.70
2018-10-03T23:53:22.855Z,9.70
2018-10-03T23:55:51.136Z,9.70
2018-10-03T23:58:19.369Z,9.70
